Time;durP1;ratioP1;P1;durP2;ratioP2;P2;SDS_P1;SDS_P2;PMS_P1;PMS_P2;Temp;Humidity;BMP_temperature;BMP_pressure;BME280_temperature;BME280_humidity;BME280_pressure;Samples;Min_cycle;Max_cycle;Signal;HPM_P1;HPM_P2
2021/08/05 00:00:26;;;;;;;11.77;8.70;;;15.80;99.90;;;;;;5043861;28;20053;-71
2021/08/05 00:02:54;;;;;;;10.05;8.27;;;15.80;99.90;;;;;;5027018;28;20163;-70
2021/08/05 00:05:19;;;;;;;10.95;8.65;;;15.80;99.90;;;;;;5029479;28;20037;-69
2021/08/05 00:07:47;;;;;;;10.40;8.35;;;15.80;99.90;;;;;;5048398;28;20040;-70
2021/08/05 00:10:15;;;;;;;9.73;8.60;;;15.80;99.90;;;;;;5030991;28;20071;-70
2021/08/05 00:12:41;;;;;;;10.73;9.00;;;15.80;99.90;;;;;;5044485;28;20033;-69
2021/08/05 00:15:07;;;;;;;11.32;9.05;;;15.80;99.90;;;;;;5047912;28;20370;-69
2021/08/05 00:17:32;;;;;;;9.35;8.35;;;15.80;99.90;;;;;;5048014;28;20041;-70
2021/08/05 00:19:58;;;;;;;10.85;8.90;;;15.80;99.90;;;;;;5063990;28;20566;-70
2021/08/05 00:22:24;;;;;;;9.70;8.70;;;15.80;99.90;;;;;;5046932;28;20043;-69
2021/08/05 00:24:52;;;;;;;10.30;9.20;;;15.80;99.90;;;;;;5048929;28;20043;-69
2021/08/05 00:27:18;;;;;;;10.48;9.05;;;15.80;99.90;;;;;;5063193;28;20076;-70
2021/08/05 00:29:43;;;;;;;11.98;10.10;;;15.80;99.90;;;;;;5048453;28;20486;-70
2021/08/05 00:32:09;;;;;;;11.32;10.02;;;15.80;99.90;;;;;;5029337;28;20037;-70
2021/08/05 00:34:39;;;;;;;10.30;9.20;;;15.80;99.90;;;;;;5047969;28;20033;-69
2021/08/05 00:37:07;;;;;;;10.50;8.80;;;15.70;99.90;;;;;;5048383;28;20024;-70
2021/08/05 00:39:33;;;;;;;10.52;9.02;;;15.70;99.90;;;;;;5048406;28;20037;-68
2021/08/05 00:42:00;;;;;;;10.15;8.68;;;15.70;99.90;;;;;;5030542;28;20078;-68
2021/08/05 00:44:26;;;;;;;11.68;8.75;;;15.60;99.90;;;;;;5047789;28;20024;-68
2021/08/05 00:46:52;;;;;;;12.52;9.60;;;15.60;99.90;;;;;;5047480;28;20036;-68
2021/08/05 00:49:19;;;;;;;10.88;9.77;;;15.70;99.90;;;;;;5046679;28;20040;-68
2021/08/05 00:51:45;;;;;;;11.35;9.50;;;15.70;99.90;;;;;;5047431;28;21895;-68
2021/08/05 00:54:10;;;;;;;12.02;8.80;;;15.70;99.90;;;;;;5030099;28;20028;-67
2021/08/05 00:56:36;;;;;;;10.75;8.40;;;15.70;99.90;;;;;;5047601;28;20047;-68
2021/08/05 00:59:02;;;;;;;10.30;8.63;;;15.60;99.90;;;;;;5062806;28;20056;-68
2021/08/05 01:01:43;;;;;;;10.02;9.02;;;15.60;99.90;;;;;;5030265;28;20063;-68
2021/08/05 01:04:09;;;;;;;10.40;9.18;;;15.60;99.90;;;;;;5028296;28;20116;-68
2021/08/05 01:06:34;;;;;;;9.43;8.23;;;15.60;99.90;;;;;;5046590;28;20070;-68
2021/08/05 01:09:23;;;;;;;9.88;8.80;;;15.60;99.90;;;;;;5046784;28;20029;-68
2021/08/05 01:12:11;;;;;;;10.77;8.80;;;15.60;99.90;;;;;;5031319;28;20028;-68
2021/08/05 01:14:38;;;;;;;9.75;8.75;;;15.60;99.90;;;;;;4999725;28;20033;-68
2021/08/05 01:17:08;;;;;;;9.68;8.68;;;15.60;99.90;;;;;;5044656;28;20512;-69
2021/08/05 01:19:56;;;;;;;10.40;8.65;;;15.60;99.90;;;;;;5044568;28;20031;-69
2021/08/05 01:22:47;;;;;;;10.27;9.25;;;15.60;99.90;;;;;;5039265;28;20830;-68
2021/08/05 01:25:19;;;;;;;11.95;9.05;;;15.50;99.90;;;;;;5060384;28;20033;-69
2021/08/05 01:27:45;;;;;;;10.00;9.00;;;15.50;99.90;;;;;;5043601;28;20112;-69
2021/08/05 01:30:13;;;;;;;10.23;9.18;;;15.60;99.90;;;;;;5030276;28;21810;-68
2021/08/05 01:32:39;;;;;;;9.77;8.77;;;15.50;99.90;;;;;;5029782;28;20032;-69
2021/08/05 01:35:08;;;;;;;10.18;9.13;;;15.50;99.90;;;;;;5047021;28;20039;-69
2021/08/05 01:37:36;;;;;;;11.10;9.27;;;15.60;99.90;;;;;;5012217;28;20036;-69
2021/08/05 01:40:01;;;;;;;10.95;9.48;;;15.60;99.90;;;;;;5045546;28;20036;-69
2021/08/05 01:42:29;;;;;;;10.63;9.52;;;15.60;99.90;;;;;;5062056;28;20088;-69
2021/08/05 01:44:57;;;;;;;13.55;9.65;;;15.60;99.90;;;;;;5061408;28;20426;-68
2021/08/05 01:47:25;;;;;;;11.07;9.27;;;15.50;99.90;;;;;;5045483;28;20029;-69
2021/08/05 01:49:51;;;;;;;11.30;9.60;;;15.50;99.90;;;;;;5028879;28;20037;-69
2021/08/05 01:52:17;;;;;;;10.32;9.32;;;15.50;99.90;;;;;;5046284;28;20154;-69
2021/08/05 01:54:43;;;;;;;10.32;9.20;;;15.50;99.90;;;;;;5045857;28;20032;-68
2021/08/05 01:57:12;;;;;;;13.38;10.32;;;15.50;99.90;;;;;;5062021;28;20593;-68
2021/08/05 01:59:42;;;;;;;10.90;9.80;;;15.60;99.90;;;;;;5028047;28;20045;-69
2021/08/05 02:02:08;;;;;;;10.48;9.35;;;15.50;99.90;;;;;;5028608;28;20037;-68
2021/08/05 02:04:58;;;;;;;13.00;9.90;;;15.50;99.90;;;;;;5061670;28;20164;-69
2021/08/05 02:07:30;;;;;;;11.32;9.25;;;15.60;99.90;;;;;;5046515;28;20029;-68
2021/08/05 02:10:11;;;;;;;;;;;15.50;99.90;;;;;;5044545;28;20056;-69
2021/08/05 02:12:43;;;;;;;11.93;8.55;;;15.50;99.90;;;;;;5061967;28;20015;-68
2021/08/05 02:15:09;;;;;;;10.65;9.60;;;15.50;99.90;;;;;;5044238;28;20024;-69
2021/08/05 02:17:37;;;;;;;11.05;9.07;;;15.50;99.90;;;;;;5062151;28;20060;-69
2021/08/05 02:20:05;;;;;;;11.18;9.13;;;15.50;99.90;;;;;;5028585;28;20454;-69
2021/08/05 02:22:33;;;;;;;11.30;9.15;;;15.50;99.90;;;;;;5043216;28;20046;-69
2021/08/05 02:24:58;;;;;;;9.88;8.23;;;15.50;99.90;;;;;;5028414;28;20063;-69
2021/08/05 02:27:25;;;;;;;9.95;8.93;;;15.50;99.90;;;;;;5043606;28;20024;-69
2021/08/05 02:29:50;;;;;;;10.77;9.13;;;15.50;99.90;;;;;;5028492;28;20037;-69
2021/08/05 02:32:16;;;;;;;11.13;9.30;;;15.50;99.90;;;;;;5044728;28;20025;-69
2021/08/05 02:34:41;;;;;;;10.45;8.63;;;15.50;99.90;;;;;;5045911;28;20032;-69
2021/08/05 02:37:09;;;;;;;9.85;8.48;;;15.50;99.90;;;;;;5044220;28;20029;-69
2021/08/05 02:39:37;;;;;;;10.95;9.13;;;15.50;99.90;;;;;;5029391;28;20040;-69
2021/08/05 02:42:04;;;;;;;11.02;9.00;;;15.50;99.90;;;;;;5045405;28;20083;-69
2021/08/05 02:44:30;;;;;;;11.00;9.10;;;15.50;99.90;;;;;;5027773;28;20618;-69
2021/08/05 02:46:55;;;;;;;10.00;8.75;;;15.50;99.90;;;;;;5044028;28;20084;-69
2021/08/05 02:49:21;;;;;;;10.60;9.10;;;15.50;99.90;;;;;;5043586;28;20428;-69
2021/08/05 02:51:51;;;;;;;11.40;9.10;;;15.50;99.90;;;;;;5060982;28;20041;-69
2021/08/05 02:54:17;;;;;;;10.88;9.00;;;15.60;99.90;;;;;;5060607;28;20566;-69
2021/08/05 02:56:42;;;;;;;11.70;9.23;;;15.50;99.90;;;;;;5027570;28;20032;-69
2021/08/05 02:59:13;;;;;;;11.90;9.15;;;15.50;99.90;;;;;;5060859;28;21904;-69
2021/08/05 03:01:40;;;;;;;10.60;8.90;;;15.40;99.90;;;;;;5044747;28;20037;-69
2021/08/05 03:04:05;;;;;;;9.68;8.20;;;15.40;99.90;;;;;;5060719;28;20037;-69
2021/08/05 03:06:31;;;;;;;10.15;8.45;;;15.40;99.90;;;;;;5044150;28;20032;-69
2021/08/05 03:08:57;;;;;;;11.43;8.57;;;15.30;99.90;;;;;;5027104;28;20033;-69
2021/08/05 03:11:22;;;;;;;10.07;8.35;;;15.30;99.90;;;;;;5045353;28;20036;-69
2021/08/05 03:13:50;;;;;;;10.88;8.32;;;15.30;99.90;;;;;;5044663;28;20037;-69
2021/08/05 03:16:18;;;;;;;10.70;8.48;;;15.20;99.90;;;;;;5059809;28;20040;-69
2021/08/05 03:18:44;;;;;;;11.27;8.02;;;15.20;99.90;;;;;;5045265;28;20059;-69
2021/08/05 03:21:12;;;;;;;9.90;7.75;;;15.10;99.90;;;;;;5045352;28;20163;-69
2021/08/05 03:23:40;;;;;;;14.55;8.57;;;15.10;99.90;;;;;;5044025;28;20033;-69
2021/08/05 03:26:07;;;;;;;9.73;8.70;;;15.00;99.90;;;;;;5043870;28;20029;-69
2021/08/05 03:28:33;;;;;;;9.32;7.93;;;15.00;99.90;;;;;;5044148;28;20033;-69
2021/08/05 03:30:58;;;;;;;10.40;8.05;;;15.00;99.90;;;;;;5027864;28;20029;-69
2021/08/05 03:33:26;;;;;;;10.40;8.02;;;15.00;99.90;;;;;;5060425;28;20028;-69
2021/08/05 03:35:52;;;;;;;9.88;7.55;;;15.00;99.90;;;;;;5043698;28;21860;-69
2021/08/05 03:38:18;;;;;;;9.27;7.85;;;15.00;99.90;;;;;;5027171;28;20048;-69
2021/08/05 03:40:46;;;;;;;13.63;8.57;;;14.90;99.90;;;;;;5012517;28;20033;-69
2021/08/05 03:43:11;;;;;;;9.10;7.97;;;14.90;99.90;;;;;;5049910;28;20062;-69
2021/08/05 03:45:37;;;;;;;10.50;8.15;;;14.90;99.90;;;;;;5064744;28;20111;-69
2021/08/05 03:48:03;;;;;;;10.48;8.18;;;14.80;99.90;;;;;;5049880;28;20029;-69
2021/08/05 03:50:28;;;;;;;10.27;7.63;;;14.80;99.90;;;;;;5050011;28;20032;-69
2021/08/05 03:52:54;;;;;;;10.05;7.60;;;14.70;99.90;;;;;;5049856;28;20597;-69
2021/08/05 03:55:19;;;;;;;10.35;7.53;;;14.70;99.90;;;;;;5049425;28;20029;-69
2021/08/05 03:57:50;;;;;;;10.07;8.30;;;14.70;99.90;;;;;;5049192;28;20036;-70
2021/08/05 04:00:17;;;;;;;9.35;7.95;;;14.70;99.90;;;;;;5030617;28;20041;-69
2021/08/05 04:02:45;;;;;;;7.78;6.85;;;14.70;99.90;;;;;;5063438;28;20033;-69
2021/08/05 04:05:11;;;;;;;12.25;8.80;;;14.70;99.90;;;;;;5064651;28;20174;-69
2021/08/05 04:07:37;;;;;;;10.95;8.45;;;14.70;99.90;;;;;;5064639;28;20503;-69
2021/08/05 04:10:08;;;;;;;9.82;7.93;;;14.60;99.90;;;;;;5049191;28;20033;-69
2021/08/05 04:12:36;;;;;;;9.60;8.18;;;14.70;99.90;;;;;;5030752;28;20127;-69
2021/08/05 04:15:02;;;;;;;9.77;8.63;;;14.60;99.90;;;;;;5047414;28;20029;-69
2021/08/05 04:17:33;;;;;;;11.15;8.40;;;14.60;99.90;;;;;;5063224;28;20032;-69
2021/08/05 04:19:58;;;;;;;8.82;7.93;;;14.50;99.90;;;;;;5047258;28;20358;-68
2021/08/05 04:22:24;;;;;;;10.35;8.30;;;14.50;99.90;;;;;;5048214;28;20033;-68
2021/08/05 04:24:54;;;;;;;10.60;7.85;;;14.50;99.90;;;;;;5030337;28;20037;-68
2021/08/05 04:27:23;;;;;;;9.82;7.95;;;14.50;99.90;;;;;;5031783;28;20029;-68
2021/08/05 04:29:49;;;;;;;13.43;7.53;;;14.50;99.90;;;;;;5029785;28;20075;-68
2021/08/05 04:32:17;;;;;;;9.02;8.07;;;14.50;99.90;;;;;;5047170;28;20473;-68
2021/08/05 04:34:42;;;;;;;10.32;8.10;;;14.50;99.90;;;;;;5047797;28;20036;-68
2021/08/05 04:37:08;;;;;;;9.55;7.50;;;14.50;99.90;;;;;;5047255;28;20029;-68
2021/08/05 04:39:36;;;;;;;17.98;7.55;;;14.50;99.90;;;;;;5063021;28;20163;-68
2021/08/05 04:42:02;;;;;;;8.90;7.47;;;14.50;99.90;;;;;;5047216;28;20020;-68
2021/08/05 04:44:28;;;;;;;8.90;7.63;;;14.50;99.90;;;;;;5047264;28;20043;-68
2021/08/05 04:46:53;;;;;;;10.90;8.60;;;14.50;99.90;;;;;;5047305;28;20420;-68
2021/08/05 04:49:19;;;;;;;11.35;8.98;;;14.50;99.90;;;;;;5047928;28;20041;-68
2021/08/05 04:51:45;;;;;;;10.88;8.20;;;14.50;99.90;;;;;;5028860;28;20040;-68
2021/08/05 04:54:10;;;;;;;10.40;8.40;;;14.50;99.90;;;;;;5063529;28;20156;-68
2021/08/05 04:56:38;;;;;;;11.95;9.00;;;14.50;99.90;;;;;;5062582;28;20025;-68
2021/08/05 04:59:04;;;;;;;12.60;8.52;;;14.50;99.90;;;;;;5046789;28;20077;-68
2021/08/05 05:01:29;;;;;;;11.68;7.63;;;14.50;99.90;;;;;;5046614;28;20124;-68
2021/08/05 05:03:55;;;;;;;10.25;7.93;;;14.50;99.90;;;;;;5028779;28;20028;-69
2021/08/05 05:06:21;;;;;;;13.57;7.72;;;14.50;99.90;;;;;;5046952;28;20095;-69
2021/08/05 05:08:46;;;;;;;9.73;8.35;;;14.60;99.90;;;;;;5045683;28;20496;-69
2021/08/05 05:11:12;;;;;;;10.35;8.63;;;14.60;99.90;;;;;;5063123;28;20056;-69
2021/08/05 05:13:38;;;;;;;10.13;9.07;;;14.60;99.90;;;;;;5046988;28;22045;-68
2021/08/05 05:16:05;;;;;;;10.10;8.18;;;14.60;99.90;;;;;;5046931;28;20577;-68
2021/08/05 05:18:31;;;;;;;10.43;8.60;;;14.60;99.90;;;;;;5028927;28;20029;-68
2021/08/05 05:20:59;;;;;;;10.70;9.13;;;14.60;99.90;;;;;;5046031;28;20037;-68
2021/08/05 05:23:27;;;;;;;9.77;8.77;;;14.70;99.90;;;;;;5046438;28;20033;-68
2021/08/05 05:25:52;;;;;;;10.55;8.90;;;14.70;99.90;;;;;;5047077;28;20623;-68
2021/08/05 05:28:18;;;;;;;9.40;8.43;;;14.70;99.90;;;;;;5046881;28;20037;-67
2021/08/05 05:30:44;;;;;;;11.18;10.07;;;14.80;99.90;;;;;;5047398;28;20040;-68
2021/08/05 05:33:09;;;;;;;10.80;9.68;;;14.80;99.90;;;;;;5029653;28;20025;-68
2021/08/05 05:35:37;;;;;;;11.43;9.32;;;14.80;99.90;;;;;;5047577;28;20033;-68
2021/08/05 05:38:03;;;;;;;11.00;9.05;;;14.80;99.90;;;;;;5046966;28;20695;-68
2021/08/05 05:40:31;;;;;;;10.77;9.10;;;14.80;99.90;;;;;;5061567;28;20044;-68
2021/08/05 05:42:57;;;;;;;11.82;9.70;;;14.80;99.90;;;;;;5045680;28;20032;-68
2021/08/05 05:45:25;;;;;;;11.88;9.85;;;14.80;99.90;;;;;;5012433;28;20037;-68
2021/08/05 05:47:51;;;;;;;11.00;9.70;;;14.90;99.90;;;;;;5028469;28;20569;-68
2021/08/05 05:50:19;;;;;;;11.68;9.80;;;14.80;99.90;;;;;;5047226;28;20033;-68
2021/08/05 05:52:44;;;;;;;12.13;9.70;;;14.90;99.90;;;;;;5026797;28;20081;-68
2021/08/05 05:55:10;;;;;;;11.32;10.13;;;14.90;99.90;;;;;;5062711;28;20036;-69
2021/08/05 05:57:40;;;;;;;11.23;10.02;;;14.90;99.90;;;;;;5046970;28;20023;-69
2021/08/05 06:00:07;;;;;;;11.68;10.20;;;15.00;99.90;;;;;;5029201;28;20045;-69
2021/08/05 06:02:33;;;;;;;12.30;10.25;;;15.00;99.90;;;;;;5033936;28;20563;-69
2021/08/05 06:05:00;;;;;;;11.38;10.23;;;15.10;99.90;;;;;;5024028;28;20084;-67
2021/08/05 06:07:25;;;;;;;15.95;11.93;;;15.10;99.90;;;;;;5045351;28;20036;-67
2021/08/05 06:09:51;;;;;;;15.20;12.82;;;15.20;99.90;;;;;;5044696;28;20025;-68
2021/08/05 06:12:17;;;;;;;12.75;11.18;;;15.20;99.90;;;;;;5044572;28;20051;-68
2021/08/05 06:14:44;;;;;;;12.02;10.55;;;15.20;99.90;;;;;;5044820;28;20158;-68
2021/08/05 06:17:09;;;;;;;12.05;9.60;;;15.30;99.90;;;;;;5025897;28;20033;-69
2021/08/05 06:19:35;;;;;;;11.43;10.13;;;15.40;99.90;;;;;;5044911;28;20550;-68
2021/08/05 06:22:03;;;;;;;11.85;9.60;;;15.40;99.90;;;;;;5027970;28;20039;-68
2021/08/05 06:24:31;;;;;;;13.57;12.02;;;15.50;99.90;;;;;;5026123;28;20025;-69
2021/08/05 06:26:56;;;;;;;15.85;12.90;;;15.50;99.90;;;;;;5045917;28;20068;-68
2021/08/05 06:29:24;;;;;;;13.88;12.38;;;15.60;99.90;;;;;;5027033;28;20112;-66
2021/08/05 06:31:50;;;;;;;20.88;17.75;;;15.70;99.90;;;;;;5045212;28;20036;-66
2021/08/05 06:34:15;;;;;;;15.43;13.43;;;15.80;99.90;;;;;;5045538;28;20029;-69
2021/08/05 06:36:41;;;;;;;15.13;11.57;;;15.90;99.90;;;;;;5044986;28;20040;-68
2021/08/05 06:39:07;;;;;;;13.30;11.13;;;16.00;99.90;;;;;;5046027;28;20032;-68
2021/08/05 06:41:33;;;;;;;13.02;11.18;;;16.00;99.90;;;;;;5045576;28;20045;-68
2021/08/05 06:43:58;;;;;;;11.45;10.27;;;16.10;99.90;;;;;;5027026;28;20054;-68
2021/08/05 06:46:30;;;;;;;9.52;8.52;;;16.20;99.90;;;;;;5027922;28;20071;-69
2021/08/05 06:48:55;;;;;;;10.75;8.90;;;16.30;99.90;;;;;;5060434;28;20024;-68
2021/08/05 06:51:21;;;;;;;14.68;8.63;;;16.40;99.90;;;;;;5046206;28;20040;-69
2021/08/05 06:53:49;;;;;;;12.73;10.00;;;16.50;99.90;;;;;;5062025;28;20028;-66
2021/08/05 06:56:17;;;;;;;13.05;11.15;;;16.50;99.90;;;;;;5045440;28;20032;-70
2021/08/05 06:58:42;;;;;;;13.18;9.98;;;16.60;99.90;;;;;;5026835;28;20049;-70
2021/08/05 07:01:11;;;;;;;11.32;8.57;;;16.70;99.90;;;;;;5027262;28;20051;-68
2021/08/05 07:03:36;;;;;;;12.20;9.48;;;16.70;99.90;;;;;;5028250;28;20036;-68
2021/08/05 07:06:07;;;;;;;12.32;9.55;;;16.70;99.90;;;;;;5045595;28;20044;-68
2021/08/05 07:08:34;;;;;;;12.00;8.95;;;16.70;99.90;;;;;;5027569;28;20880;-68
2021/08/05 07:11:00;;;;;;;12.52;10.73;;;16.80;99.90;;;;;;5028011;28;20024;-68
2021/08/05 07:13:25;;;;;;;12.85;11.00;;;16.80;99.90;;;;;;5060482;28;20160;-69
2021/08/05 07:15:53;;;;;;;12.10;10.40;;;16.80;99.90;;;;;;5049329;28;20076;-69
2021/08/05 07:18:21;;;;;;;13.43;10.85;;;16.80;99.90;;;;;;5031908;28;20047;-69
2021/08/05 07:20:49;;;;;;;13.13;11.05;;;16.80;99.90;;;;;;5049423;28;20048;-68
2021/08/05 07:23:14;;;;;;;12.70;10.57;;;16.80;99.90;;;;;;5030915;28;20033;-69
2021/08/05 07:25:42;;;;;;;13.60;10.75;;;16.90;99.90;;;;;;5048938;28;21832;-68
2021/08/05 07:28:08;;;;;;;14.05;10.10;;;16.90;99.90;;;;;;5031729;28;20032;-68
2021/08/05 07:30:35;;;;;;;14.65;10.77;;;16.90;99.90;;;;;;5049417;28;20091;-69
2021/08/05 07:33:01;;;;;;;13.23;10.25;;;16.90;99.90;;;;;;5048102;28;20238;-68
2021/08/05 07:35:27;;;;;;;10.50;8.35;;;17.00;99.90;;;;;;5032361;28;20041;-68
2021/08/05 07:37:52;;;;;;;12.23;9.60;;;17.00;99.90;;;;;;5048305;28;20088;-68
2021/08/05 07:40:18;;;;;;;13.60;9.98;;;17.10;99.90;;;;;;5030912;28;20061;-69
2021/08/05 07:42:44;;;;;;;12.30;9.80;;;17.20;99.90;;;;;;5049635;28;20686;-68
2021/08/05 07:45:10;;;;;;;11.48;8.43;;;17.20;99.90;;;;;;5047827;28;20032;-68
2021/08/05 07:47:38;;;;;;;12.00;9.75;;;17.40;99.90;;;;;;5033619;28;20723;-69
2021/08/05 07:50:05;;;;;;;15.13;12.55;;;17.40;99.90;;;;;;5048311;28;20072;-67
2021/08/05 07:52:30;;;;;;;14.43;10.82;;;17.50;99.90;;;;;;5049046;28;20043;-70
2021/08/05 07:54:56;;;;;;;11.30;8.18;;;17.60;99.90;;;;;;5047876;28;20025;-69
2021/08/05 07:57:24;;;;;;;11.20;7.80;;;17.60;99.90;;;;;;5048598;28;20075;-68
2021/08/05 07:59:50;;;;;;;9.55;7.80;;;17.70;99.90;;;;;;5047999;28;20489;-69
2021/08/05 08:02:15;;;;;;;9.73;7.47;;;17.80;99.90;;;;;;5049032;28;20036;-69
2021/08/05 08:04:43;;;;;;;9.55;6.90;;;17.80;99.90;;;;;;5063988;28;20029;-70
2021/08/05 08:07:08;;;;;;;9.30;6.68;;;18.00;99.90;;;;;;5046543;28;20434;-67
2021/08/05 08:09:37;;;;;;;9.48;7.75;;;18.10;99.90;;;;;;5016727;28;20087;-68
2021/08/05 08:12:03;;;;;;;10.00;8.25;;;18.30;99.90;;;;;;5029162;28;20336;-70
2021/08/05 08:14:33;;;;;;;11.32;8.98;;;18.40;99.90;;;;;;5063181;28;20103;-70
2021/08/05 08:16:59;;;;;;;10.27;7.38;;;18.40;99.90;;;;;;5047332;28;20036;-71
2021/08/05 08:19:26;;;;;;;8.82;6.88;;;18.50;99.90;;;;;;5047425;28;20036;-69
2021/08/05 08:21:52;;;;;;;9.30;7.63;;;18.70;99.90;;;;;;5048166;28;20759;-69
2021/08/05 08:24:18;;;;;;;8.73;6.88;;;18.60;99.90;;;;;;5047770;28;20073;-70
2021/08/05 08:26:45;;;;;;;9.20;8.05;;;18.70;99.90;;;;;;5047348;28;20948;-69
2021/08/05 08:29:11;;;;;;;10.38;8.02;;;18.60;99.90;;;;;;5047407;28;20037;-69
2021/08/05 08:31:44;;;;;;;9.75;7.30;;;18.80;99.90;;;;;;5047558;28;21832;-69
2021/08/05 08:34:12;;;;;;;8.93;7.43;;;18.80;99.90;;;;;;5046372;28;20057;-70
2021/08/05 08:36:39;;;;;;;7.60;5.57;;;19.00;99.90;;;;;;5048248;28;20071;-69
2021/08/05 08:39:09;;;;;;;9.07;6.88;;;19.10;99.90;;;;;;5047515;28;20094;-70
2021/08/05 08:41:38;;;;;;;8.23;6.45;;;19.10;99.90;;;;;;5047001;28;20029;-69
2021/08/05 08:44:08;;;;;;;8.75;7.40;;;19.20;99.90;;;;;;5062265;28;20069;-69
2021/08/05 08:46:37;;;;;;;8.15;5.68;;;19.20;99.90;;;;;;5046220;28;20531;-69
2021/08/05 08:49:05;;;;;;;8.02;6.40;;;19.40;99.90;;;;;;5029554;28;20036;-69
2021/08/05 08:51:31;;;;;;;8.73;6.03;;;19.50;99.90;;;;;;5062558;28;20033;-69
2021/08/05 08:54:00;;;;;;;8.80;6.07;;;19.70;99.90;;;;;;5028495;28;20025;-70
2021/08/05 08:56:26;;;;;;;7.75;6.03;;;19.80;99.90;;;;;;5047057;28;20086;-69
2021/08/05 08:58:51;;;;;;;7.65;6.00;;;19.90;99.90;;;;;;5042888;28;20056;-69
2021/08/05 09:01:19;;;;;;;8.18;6.47;;;20.00;99.90;;;;;;5062438;28;22051;-69
2021/08/05 09:03:45;;;;;;;8.27;5.85;;;20.00;99.90;;;;;;5047745;28;20037;-69
2021/08/05 09:06:13;;;;;;;7.78;5.55;;;20.00;99.90;;;;;;5047065;28;20044;-70
2021/08/05 09:08:41;;;;;;;7.40;5.70;;;20.00;99.90;;;;;;5061652;28;20033;-69
2021/08/05 09:11:07;;;;;;;6.80;5.45;;;20.10;99.90;;;;;;5029686;28;20519;-70
2021/08/05 09:13:33;;;;;;;7.13;6.07;;;20.20;99.90;;;;;;5045821;28;20037;-69
2021/08/05 09:16:00;;;;;;;7.15;5.88;;;20.20;99.90;;;;;;5045796;28;20032;-68
2021/08/05 09:18:31;;;;;;;7.45;5.75;;;20.30;99.90;;;;;;5029704;28;20178;-69
2021/08/05 09:21:08;;;;;;;;;;;20.30;99.90;;;;;;5046666;28;20467;-70
2021/08/05 09:23:54;;;;;;;8.80;6.50;;;20.50;99.90;;;;;;5046883;28;19916;-70
2021/08/05 09:26:27;;;;;;;7.25;5.70;;;20.30;99.90;;;;;;5046448;28;20410;-69
2021/08/05 09:29:09;;;;;;;9.35;6.03;;;20.40;99.90;;;;;;5029909;28;20478;-70
2021/08/05 09:31:46;;;;;;;8.45;6.10;;;20.40;99.90;;;;;;5046912;28;20029;-69
2021/08/05 09:34:14;;;;;;;9.80;7.07;;;20.50;99.90;;;;;;5046536;28;20020;-70
2021/08/05 09:36:43;;;;;;;7.38;6.25;;;20.70;99.90;;;;;;5046139;28;20037;-70
2021/08/05 09:39:19;;;;;;;8.02;6.38;;;20.60;99.90;;;;;;5062435;28;20048;-70
2021/08/05 09:42:07;;;;;;;8.43;6.88;;;20.80;99.90;;;;;;5061320;28;20036;-67
2021/08/05 09:44:38;;;;;;;8.85;7.07;;;20.60;99.90;;;;;;5030368;28;20442;-67
2021/08/05 09:47:07;;;;;;;9.10;7.15;;;20.80;99.90;;;;;;5046009;28;20036;-67
2021/08/05 09:49:34;;;;;;;7.93;6.13;;;20.80;99.90;;;;;;5025176;28;20036;-67
2021/08/05 09:52:00;;;;;;;7.22;5.57;;;21.00;99.90;;;;;;5045735;28;20033;-67
2021/08/05 09:54:47;;;;;;;7.05;5.80;;;21.10;99.90;;;;;;5046105;28;20036;-67
2021/08/05 09:57:13;;;;;;;8.30;6.25;;;21.10;99.90;;;;;;5046225;28;20044;-67
2021/08/05 10:00:01;;;;;;;8.23;6.50;;;21.00;99.90;;;;;;5034390;28;21387;-68
2021/08/05 10:02:47;;;;;;;7.68;6.00;;;21.20;99.90;;;;;;5035643;28;20473;-68
2021/08/05 10:05:17;;;;;;;9.07;6.03;;;21.10;99.90;;;;;;5033986;28;20059;-69
2021/08/05 10:07:46;;;;;;;8.35;4.75;;;21.20;99.90;;;;;;5016482;28;20025;-68
2021/08/05 10:10:12;;;;;;;7.38;4.90;;;21.10;99.50;;;;;;5021824;28;20029;-68
2021/08/05 10:12:38;;;;;;;7.38;4.65;;;21.20;99.90;;;;;;5033305;28;20029;-66
2021/08/05 10:15:15;;;;;;;7.93;6.28;;;21.00;99.90;;;;;;5034568;28;20037;-66
2021/08/05 10:17:41;;;;;;;6.55;4.85;;;20.90;99.90;;;;;;5066786;28;20063;-69
2021/08/05 10:20:14;;;;;;;6.28;4.18;;;20.90;99.90;;;;;;5034024;28;20470;-69
2021/08/05 10:22:40;;;;;;;6.78;4.70;;;21.00;99.90;;;;;;5066276;28;20378;-69
2021/08/05 10:25:09;;;;;;;6.13;4.50;;;20.90;99.90;;;;;;5032844;28;20033;-68
2021/08/05 10:27:37;;;;;;;6.25;5.13;;;21.00;99.90;;;;;;5033497;28;20032;-68
2021/08/05 10:30:06;;;;;;;6.80;5.20;;;20.90;99.90;;;;;;5033682;28;20039;-68
2021/08/05 10:32:32;;;;;;;6.30;4.57;;;21.00;99.90;;;;;;5065666;28;20036;-68
2021/08/05 10:34:59;;;;;;;7.72;4.88;;;21.10;99.90;;;;;;5033691;28;20033;-68
2021/08/05 10:37:32;;;;;;;7.97;5.40;;;21.20;99.90;;;;;;5028414;28;20440;-69
2021/08/05 10:40:00;;;;;;;5.85;4.50;;;21.20;98.80;;;;;;5048882;28;20090;-68
2021/08/05 10:42:26;;;;;;;7.50;5.53;;;21.30;99.90;;;;;;5048398;28;20032;-69
2021/08/05 10:44:51;;;;;;;6.07;5.00;;;21.40;99.90;;;;;;5033203;28;20030;-68
2021/08/05 10:47:22;;;;;;;6.47;4.60;;;21.40;99.90;;;;;;5035205;28;20464;-68
2021/08/05 10:49:53;;;;;;;7.63;5.15;;;21.50;99.90;;;;;;5030367;28;20060;-68
2021/08/05 10:52:34;;;;;;;5.93;4.43;;;21.50;99.70;;;;;;5044610;28;20029;-68
2021/08/05 10:55:00;;;;;;;7.25;4.90;;;21.30;96.90;;;;;;5032985;28;20048;-69
2021/08/05 10:57:26;;;;;;;6.13;4.32;;;21.20;97.90;;;;;;5029473;28;20454;-69
2021/08/05 11:00:05;;;;;;;6.40;4.40;;;21.20;97.80;;;;;;5067059;28;20040;-67
2021/08/05 11:02:51;;;;;;;8.20;6.30;;;21.30;99.90;;;;;;5032665;28;20044;-67
2021/08/05 11:05:22;;;;;;;6.57;4.85;;;21.30;99.90;;;;;;5063276;28;20017;-69
2021/08/05 11:07:52;;;;;;;5.95;4.28;;;21.30;99.90;;;;;;5032699;28;20029;-68
2021/08/05 11:10:24;;;;;;;6.50;4.10;;;21.20;97.70;;;;;;5022071;28;20037;-68
2021/08/05 11:12:58;;;;;;;5.80;3.85;;;21.30;99.90;;;;;;5050635;28;20029;-68
2021/08/05 11:15:29;;;;;;;6.00;3.90;;;21.20;99.90;;;;;;5052172;28;20203;-68
2021/08/05 11:20:42;;;;;;;7.15;4.20;;;21.30;99.90;;;;;;5020062;28;20045;-68
2021/08/05 11:25:56;;;;;;;5.80;4.00;;;21.40;99.90;;;;;;5018690;28;20211;-68
2021/08/05 11:28:27;;;;;;;6.32;4.20;;;21.30;99.90;;;;;;5019379;28;20029;-68
2021/08/05 11:30:54;;;;;;;6.10;4.40;;;21.20;99.90;;;;;;5034446;28;20564;-68
2021/08/05 11:33:41;;;;;;;6.15;4.60;;;21.20;99.90;;;;;;5018649;28;20029;-67
2021/08/05 11:36:22;;;;;;;6.50;4.68;;;21.20;99.90;;;;;;5035857;28;20106;-68
2021/08/05 11:39:05;;;;;;;7.13;4.30;;;21.20;99.90;;;;;;5019608;28;20033;-68
2021/08/05 11:41:42;;;;;;;6.82;4.65;;;21.50;99.90;;;;;;5034081;28;21515;-68
2021/08/05 11:44:32;;;;;;;5.78;4.35;;;21.60;99.90;;;;;;5034270;28;20083;-68
2021/08/05 11:47:00;;;;;;;5.95;4.28;;;21.80;99.90;;;;;;5019344;28;20034;-68
2021/08/05 11:49:48;;;;;;;6.93;4.40;;;22.00;99.90;;;;;;5023233;28;20163;-68
2021/08/05 11:52:31;;;;;;;6.72;4.13;;;22.20;99.90;;;;;;5018299;28;20052;-68
2021/08/05 11:55:38;;;;;;;6.93;4.60;;;22.40;99.90;;;;;;5016411;28;20095;-68
2021/08/05 11:58:04;;;;;;;6.20;4.93;;;22.40;99.90;;;;;;5027691;28;20034;-67
2021/08/05 12:00:30;;;;;;;5.78;3.80;;;22.50;99.90;;;;;;5023490;28;20057;-66
2021/08/05 12:03:09;;;;;;;5.88;4.30;;;22.60;98.90;;;;;;5019033;28;20137;-66
2021/08/05 12:05:45;;;;;;;5.90;4.07;;;22.40;85.60;;;;;;5003584;28;20034;-69
2021/08/05 12:08:17;;;;;;;5.85;3.95;;;22.20;92.30;;;;;;5017710;28;20048;-69
2021/08/05 12:10:45;;;;;;;5.30;3.85;;;22.30;99.90;;;;;;5036328;28;20048;-69
2021/08/05 12:13:16;;;;;;;5.63;3.70;;;22.20;98.30;;;;;;5017941;28;20071;-68
2021/08/05 12:15:46;;;;;;;5.00;3.45;;;22.40;92.60;;;;;;5018323;28;20483;-70
2021/08/05 12:18:16;;;;;;;4.85;3.30;;;22.50;91.40;;;;;;4999144;28;20073;-69
2021/08/05 12:20:46;;;;;;;6.57;3.72;;;22.60;98.30;;;;;;5016544;28;20029;-73
2021/08/05 12:23:17;;;;;;;5.13;3.72;;;22.60;86.00;;;;;;5014707;28;20037;-69
2021/08/05 12:28:29;;;;;;;6.43;3.97;;;22.50;88.70;;;;;;5016217;28;20033;-70
2021/08/05 12:30:58;;;;;;;5.63;3.90;;;22.40;88.00;;;;;;5018323;28;20021;-70
2021/08/05 12:33:35;;;;;;;5.75;4.18;;;22.40;93.40;;;;;;5018801;28;20034;-69
2021/08/05 12:36:04;;;;;;;5.38;4.30;;;22.40;90.70;;;;;;5014313;28;20132;-69
2021/08/05 12:38:30;;;;;;;6.20;4.10;;;22.50;99.20;;;;;;5003556;28;20160;-69
2021/08/05 12:41:00;;;;;;;5.90;4.03;;;22.40;94.00;;;;;;5048947;28;20021;-69
2021/08/05 12:43:30;;;;;;;5.75;3.97;;;22.50;90.20;;;;;;5048948;28;20510;-70
2021/08/05 12:45:56;;;;;;;5.80;4.22;;;22.50;85.30;;;;;;5012059;28;20486;-70
2021/08/05 12:48:22;;;;;;;6.57;4.43;;;22.40;93.00;;;;;;5013004;28;20033;-69
2021/08/05 12:50:47;;;;;;;6.45;4.28;;;22.40;95.10;;;;;;5049099;28;20086;-70
2021/08/05 12:53:30;;;;;;;5.28;3.92;;;22.30;94.00;;;;;;5012940;28;20041;-69
2021/08/05 12:55:55;;;;;;;5.00;4.05;;;22.20;95.80;;;;;;5017532;28;20043;-70